ESPA/LLA METAR and TAF weather

Enter ICAO airport designator
Station Type Date Time Source
ESPA METAR 2020/09/25 18:20 UTC NOAA

ESPA 251820Z VRB02KT CAVOK 10/05 Q1008


Station Type Date Time Source
ESPA Decoded METAR 2020/09/25 18:20 UTC NOAA

Lulea / Kallax, Sweden (ESPA) 65-33N 022-08E 34M
Sep 25, 2020 - 02:20 PM EDT / 2020.09.25 1820 UTC
Wind: Variable at 2 MPH (2 KT):0
Visibility: greater than 7 mile(s):0
Temperature: 50 F (10 C)
Dew Point: 41 F (5 C)
Relative Humidity: 71%
Pressure (altimeter): 29.77 in. Hg (1008 hPa)
ob: ESPA 251820Z VRB02KT CAVOK 10/05 Q1008
cycle: 18

Station Type Date Time Source
ESPA TAF 2019/02/04 06:27 UTC NOAA

TAF TAF ESPA 040820Z 0406/0418 01010KT 2000 SN VV020
TEMPO 0409/0414 1000 +SN DRSN VV009
BECMG 0414/0416 32010KT 5000 -SN VV030
RMK MIL

Example: see airport list